Time;durP1;ratioP1;P1;durP2;ratioP2;P2;SDS_P1;SDS_P2;PMS_P1;PMS_P2;Temp;Humidity;BMP_temperature;BMP_pressure;BME280_temperature;BME280_humidity;BME280_pressure;Samples;Min_cycle;Max_cycle;Signal;HPM_P1;HPM_P2
2022/10/25 00:04:38;;;;;;;18.70;11.20;;;;;;;17.63;67.97;98902.04;226433;1248;140065;-64
2022/10/25 00:09:41;;;;;;;14.80;11.10;;;;;;;17.60;67.99;98902.69;227445;1234;141004;-63
2022/10/25 00:14:45;;;;;;;14.90;9.70;;;;;;;17.63;68.06;98910.11;227373;1234;139922;-63
2022/10/25 00:19:48;;;;;;;15.90;11.40;;;;;;;17.66;68.22;98908.02;227477;1234;140057;-63
2022/10/25 00:24:51;;;;;;;18.00;12.10;;;;;;;17.66;68.30;98901.89;227524;1234;139694;-63
2022/10/25 00:29:54;;;;;;;15.60;12.10;;;;;;;17.65;68.26;98910.64;226349;1249;139511;-62
2022/10/25 00:34:57;;;;;;;15.50;10.80;;;;;;;17.66;68.27;98903.19;226548;1240;140192;-62
2022/10/25 00:40:00;;;;;;;16.20;10.30;;;;;;;17.66;68.05;98894.38;226745;1238;140155;-62
2022/10/25 00:45:27;;;;;;;14.20;10.50;;;;;;;17.67;68.19;98890.77;226525;1237;139583;-62
2022/10/25 00:50:38;;;;;;;14.50;10.10;;;;;;;17.66;68.32;98887.98;226476;1241;140668;-63
2022/10/25 00:55:45;;;;;;;14.10;11.10;;;;;;;17.57;68.23;98903.31;227500;1237;139128;-62
2022/10/25 01:00:49;;;;;;;15.80;10.10;;;;;;;17.54;68.32;98909.55;226815;1241;140116;-65
2022/10/25 01:05:52;;;;;;;14.80;10.20;;;;;;;17.56;68.32;98907.77;227502;1227;139952;-66
2022/10/25 01:10:55;;;;;;;15.80;10.90;;;;;;;17.63;68.68;98912.80;226683;1241;139800;-65
2022/10/25 01:16:11;;;;;;;14.80;10.90;;;;;;;17.69;68.58;98907.40;227409;1234;138625;-64
2022/10/25 01:21:17;;;;;;;12.50;9.90;;;;;;;17.69;68.41;98905.21;227498;1248;138977;-63
2022/10/25 01:26:38;;;;;;;13.40;9.70;;;;;;;17.66;68.50;98900.16;227450;1245;139169;-65
2022/10/25 01:31:49;;;;;;;11.40;9.60;;;;;;;17.63;68.15;98895.59;226412;1241;140206;-64
2022/10/25 01:37:06;;;;;;;13.20;9.90;;;;;;;17.60;68.54;98897.81;227482;1234;139834;-66
2022/10/25 01:42:37;;;;;;;12.30;9.90;;;;;;;17.60;68.73;98905.41;226322;1237;139412;-66
2022/10/25 01:47:49;;;;;;;15.70;11.00;;;;;;;17.62;68.71;98907.38;226181;1242;138748;-65
2022/10/25 01:52:52;;;;;;;15.80;10.20;;;;;;;17.58;68.53;98911.52;226403;1240;139419;-65
2022/10/25 01:58:02;;;;;;;13.90;9.70;;;;;;;17.55;68.53;98905.13;226432;1241;139944;-65
2022/10/25 02:03:36;;;;;;;13.40;10.90;;;;;;;17.59;68.49;98907.14;226636;1241;139804;-63
2022/10/25 02:08:50;;;;;;;17.20;11.50;;;;;;;17.61;68.74;98903.71;226529;1241;139256;-62
2022/10/25 02:14:12;;;;;;;16.20;11.20;;;;;;;17.57;68.54;98899.58;227493;1234;139796;-63
2022/10/25 02:19:21;;;;;;;13.80;11.20;;;;;;;17.52;68.63;98909.55;226855;1249;139396;-61
2022/10/25 02:24:27;;;;;;;14.40;10.80;;;;;;;17.52;68.58;98916.71;226763;1241;140540;-62
2022/10/25 02:29:33;;;;;;;14.30;11.00;;;;;;;17.56;68.72;98916.66;226572;1238;140124;-61
2022/10/25 02:34:36;;;;;;;14.70;12.30;;;;;;;17.56;68.62;98917.59;226448;1241;139319;-63
2022/10/25 02:39:39;;;;;;;17.40;13.00;;;;;;;17.52;68.52;98916.17;226696;1241;139317;-63
2022/10/25 02:44:42;;;;;;;20.00;13.20;;;;;;;17.44;68.45;98926.01;226736;1247;140468;-63
2022/10/25 02:49:45;;;;;;;18.00;13.00;;;;;;;17.41;68.45;98918.60;226489;1241;141473;-64
2022/10/25 02:54:47;;;;;;;23.00;13.80;;;;;;;17.39;68.54;98916.83;227474;1231;140667;-64
2022/10/25 02:59:50;;;;;;;17.90;13.40;;;;;;;17.34;68.76;98911.94;226652;1253;139318;-63
2022/10/25 03:04:53;;;;;;;36.30;26.70;;;;;;;17.32;68.67;98914.63;227482;1226;140979;-63
2022/10/25 03:09:56;;;;;;;18.60;13.30;;;;;;;17.28;68.73;98918.74;226229;1248;139323;-62
2022/10/25 03:14:59;;;;;;;20.70;12.10;;;;;;;17.24;68.66;98907.93;226497;1243;139670;-63
2022/10/25 03:20:03;;;;;;;189.70;152.70;;;;;;;17.27;68.82;98904.48;227379;1234;139866;-63
2022/10/25 03:25:06;;;;;;;22.40;16.30;;;;;;;17.24;68.76;98907.57;226354;1243;139509;-62
2022/10/25 03:30:12;;;;;;;21.50;13.10;;;;;;;17.19;68.49;98910.39;226598;1241;139280;-62
2022/10/25 03:35:15;;;;;;;38.20;30.00;;;;;;;17.16;68.55;98919.48;227430;1234;139355;-64
2022/10/25 03:40:19;;;;;;;19.20;12.40;;;;;;;17.14;68.43;98923.40;226548;1241;140360;-63
2022/10/25 03:45:22;;;;;;;17.80;12.40;;;;;;;17.16;68.69;98923.27;227358;1230;139549;-63
2022/10/25 03:50:25;;;;;;;16.40;11.50;;;;;;;17.16;68.51;98923.08;226570;1238;139873;-64
2022/10/25 03:55:28;;;;;;;14.60;11.40;;;;;;;17.13;68.49;98930.28;226605;1233;139392;-65
2022/10/25 04:00:31;;;;;;;27.20;21.20;;;;;;;17.08;68.63;98936.70;226715;1242;139211;-64
2022/10/25 04:05:34;;;;;;;18.30;11.00;;;;;;;17.07;68.59;98938.45;226588;1239;139996;-65
2022/10/25 04:10:37;;;;;;;15.80;11.30;;;;;;;17.08;68.65;98940.31;226430;1249;140541;-64
2022/10/25 04:15:40;;;;;;;17.70;10.90;;;;;;;17.09;68.67;98940.35;226355;1250;139238;-65
2022/10/25 04:20:43;;;;;;;18.90;11.40;;;;;;;17.06;68.72;98937.63;226441;1235;139501;-63
2022/10/25 04:25:46;;;;;;;13.50;10.40;;;;;;;17.04;68.75;98935.62;227311;1232;140057;-63
2022/10/25 04:30:49;;;;;;;15.70;9.90;;;;;;;17.06;68.79;98941.04;227565;1234;140076;-61
2022/10/25 04:35:56;;;;;;;15.70;11.40;;;;;;;17.08;68.76;98942.67;226471;1249;140368;-64
2022/10/25 04:40:59;;;;;;;14.30;10.90;;;;;;;17.05;68.44;98947.23;226622;1241;139528;-62
2022/10/25 04:46:03;;;;;;;16.20;11.60;;;;;;;17.02;68.71;98942.05;226383;1243;139149;-62
2022/10/25 04:51:07;;;;;;;14.70;10.20;;;;;;;16.99;68.63;98940.20;226504;1238;140237;-60
2022/10/25 04:56:13;;;;;;;15.10;11.00;;;;;;;17.01;68.48;98944.27;226664;1247;139642;-61
2022/10/25 05:01:17;;;;;;;19.10;11.80;;;;;;;17.02;68.58;98947.82;226699;1242;140447;-63
2022/10/25 05:06:24;;;;;;;17.60;12.40;;;;;;;16.97;68.18;98951.25;226093;1251;139524;-63
2022/10/25 05:11:27;;;;;;;23.10;16.80;;;;;;;16.92;68.58;98953.73;226599;1237;139835;-63
2022/10/25 05:16:33;;;;;;;18.00;12.20;;;;;;;16.89;68.41;98949.38;226692;1243;140590;-63
2022/10/25 05:21:36;;;;;;;17.40;11.20;;;;;;;16.82;68.43;98949.77;226343;1249;139530;-61
2022/10/25 05:26:39;;;;;;;18.40;10.90;;;;;;;16.81;68.36;98947.41;226661;1234;141065;-67
2022/10/25 05:31:42;;;;;;;18.40;11.30;;;;;;;16.82;68.67;98947.68;226626;1241;140272;-65
2022/10/25 05:36:45;;;;;;;15.90;11.00;;;;;;;16.82;68.32;98948.25;226812;1241;139257;-66
2022/10/25 05:41:48;;;;;;;18.30;12.20;;;;;;;16.76;68.50;98949.63;227458;1233;139475;-65
2022/10/25 05:46:52;;;;;;;17.30;11.50;;;;;;;16.72;68.53;98952.40;227178;1242;140120;-61
2022/10/25 05:51:55;;;;;;;14.40;10.80;;;;;;;16.73;68.67;98950.70;226670;1234;138939;-61
2022/10/25 05:56:57;;;;;;;16.90;10.90;;;;;;;16.75;68.41;98947.11;227458;1234;139841;-62
2022/10/25 06:02:01;;;;;;;14.50;10.80;;;;;;;16.76;68.53;98955.30;227475;1240;139864;-62
2022/10/25 06:07:06;;;;;;;13.00;10.70;;;;;;;16.77;68.33;98969.02;226766;1240;139742;-63
2022/10/25 06:12:09;;;;;;;22.70;11.80;;;;;;;16.74;68.45;98979.84;226482;1238;140349;-62
2022/10/25 06:17:12;;;;;;;18.90;11.00;;;;;;;16.70;68.42;98985.79;226719;1247;138950;-64
2022/10/25 06:22:15;;;;;;;15.70;10.30;;;;;;;16.73;68.64;98989.61;226573;1237;140079;-64
2022/10/25 06:27:18;;;;;;;17.40;10.90;;;;;;;16.77;68.77;98996.58;227451;1241;140676;-62
2022/10/25 06:32:21;;;;;;;16.70;10.70;;;;;;;16.80;68.84;99004.98;226431;1241;139534;-61
2022/10/25 06:37:24;;;;;;;13.50;9.90;;;;;;;16.76;68.52;99005.14;226791;1241;139241;-63
2022/10/25 06:42:27;;;;;;;12.80;9.80;;;;;;;16.70;68.46;99011.16;227541;1227;139274;-63
2022/10/25 06:47:30;;;;;;;14.40;9.50;;;;;;;16.72;68.33;99008.31;226416;1243;140288;-64
2022/10/25 06:52:33;;;;;;;15.20;10.70;;;;;;;16.73;68.56;99020.10;226653;1237;140259;-65
2022/10/25 06:57:36;;;;;;;16.50;10.60;;;;;;;16.71;68.59;99027.73;227504;1237;140274;-61
2022/10/25 07:02:39;;;;;;;14.50;10.50;;;;;;;16.67;68.48;99035.85;226718;1241;139598;-60
2022/10/25 07:07:42;;;;;;;13.00;9.10;;;;;;;16.66;68.54;99040.17;226402;1250;140046;-61
2022/10/25 07:12:45;;;;;;;12.20;8.90;;;;;;;16.70;68.39;99038.24;226505;1241;140313;-61
2022/10/25 07:17:48;;;;;;;12.70;9.50;;;;;;;16.76;68.66;99043.64;227447;1241;139356;-62
2022/10/25 07:22:51;;;;;;;14.80;9.00;;;;;;;16.85;68.88;99054.38;226556;1242;139128;-62
2022/10/25 07:28:01;;;;;;;15.00;10.20;;;;;;;16.92;68.56;99066.13;227481;1226;139890;-62
2022/10/25 07:33:03;;;;;;;11.30;8.70;;;;;;;16.96;68.74;99068.05;227394;1227;139690;-61
2022/10/25 07:38:06;;;;;;;14.80;7.90;;;;;;;17.04;68.63;99074.16;226245;1240;140296;-61
2022/10/25 07:43:09;;;;;;;16.00;7.80;;;;;;;17.10;68.49;99074.41;226555;1241;139474;-61
2022/10/25 07:48:12;;;;;;;12.20;8.00;;;;;;;17.16;68.24;99059.68;226743;1241;138830;-65
2022/10/25 07:53:15;;;;;;;11.40;6.50;;;;;;;17.25;68.22;99042.59;226542;1238;139242;-62
2022/10/25 07:58:19;;;;;;;13.40;6.90;;;;;;;17.30;68.16;99027.48;226233;1240;139712;-62
2022/10/25 08:03:22;;;;;;;19.00;12.80;;;;;;;17.33;68.22;99013.71;226301;1247;139223;-63
2022/10/25 08:08:26;;;;;;;9.30;6.00;;;;;;;17.43;68.07;99006.66;227443;1230;140606;-63
2022/10/25 08:13:29;;;;;;;9.40;4.80;;;;;;;17.52;67.94;99005.15;226338;1240;138993;-63
2022/10/25 08:18:32;;;;;;;13.70;4.30;;;;;;;17.59;67.81;98997.64;226370;1241;138756;-63
2022/10/25 08:23:36;;;;;;;12.40;4.40;;;;;;;17.67;67.64;98997.98;227405;1227;139075;-62
2022/10/25 08:28:39;;;;;;;10.00;4.60;;;;;;;17.72;67.34;98998.05;226493;1234;139206;-63
2022/10/25 08:33:42;;;;;;;7.60;4.10;;;;;;;17.74;67.06;98998.61;227320;1234;139980;-64
2022/10/25 08:38:46;;;;;;;7.90;4.10;;;;;;;17.84;67.15;99006.17;226334;1240;140204;-62
2022/10/25 08:44:10;;;;;;;7.60;4.10;;;;;;;17.97;66.98;99001.73;226336;1241;140586;-63
2022/10/25 08:49:57;;;;;;;13.30;4.10;;;;;;;18.01;66.64;98999.40;227482;1234;139425;-62
2022/10/25 08:55:04;;;;;;;13.10;4.00;;;;;;;18.08;66.61;99012.56;226142;1244;139449;-63
2022/10/25 09:00:16;;;;;;;10.40;4.00;;;;;;;18.17;66.55;99023.59;226435;1238;139364;-62
2022/10/25 09:05:41;;;;;;;5.90;3.70;;;;;;;18.26;66.38;99030.80;226505;1234;139189;-63
2022/10/25 09:10:54;;;;;;;10.40;3.30;;;;;;;18.33;65.93;99036.59;226711;1238;139606;-63
2022/10/25 09:16:18;;;;;;;8.90;2.90;;;;;;;18.40;65.79;99043.14;226496;1241;139546;-63
2022/10/25 09:21:21;;;;;;;9.50;3.30;;;;;;;18.47;65.64;99043.16;226252;1236;139066;-61
2022/10/25 09:26:37;;;;;;;14.00;3.20;;;;;;;18.52;65.07;99045.29;226449;1234;138735;-64
2022/10/25 09:31:47;;;;;;;12.80;3.30;;;;;;;18.58;64.86;99050.29;226471;1237;139678;-66
2022/10/25 09:36:57;;;;;;;11.60;3.40;;;;;;;18.62;64.49;99057.08;227526;1234;139116;-63
2022/10/25 09:42:02;;;;;;;7.30;3.20;;;;;;;18.55;64.30;99063.09;227290;1230;139453;-64
2022/10/25 09:47:16;;;;;;;7.00;3.20;;;;;;;18.38;63.82;99063.63;226339;1243;139088;-64
2022/10/25 09:52:43;;;;;;;7.30;3.20;;;;;;;18.26;63.59;99063.34;227368;1234;139329;-64
2022/10/25 09:57:46;;;;;;;7.20;2.30;;;;;;;18.18;63.72;99064.25;226586;1241;139778;-64
2022/10/25 10:02:49;;;;;;;4.80;2.20;;;;;;;18.05;63.58;99069.77;227516;1226;139361;-65
2022/10/25 10:07:53;;;;;;;4.90;2.10;;;;;;;17.93;63.78;99068.16;227403;1226;138892;-64
2022/10/25 10:13:11;;;;;;;3.40;2.20;;;;;;;17.82;63.85;99066.15;226484;1237;139012;-63
2022/10/25 10:18:21;;;;;;;4.10;2.20;;;;;;;17.67;63.78;99065.08;226683;1233;139084;-66
2022/10/25 10:23:31;;;;;;;3.50;1.90;;;;;;;17.57;64.14;99068.42;227431;1231;139964;-63
2022/10/25 10:28:35;;;;;;;6.10;2.00;;;;;;;17.47;64.11;99072.46;227410;1235;139686;-62
2022/10/25 10:33:38;;;;;;;5.30;2.30;;;;;;;17.48;64.74;99070.94;226287;1241;139351;-64
2022/10/25 10:38:41;;;;;;;4.80;2.30;;;;;;;17.51;64.89;99068.92;226669;1237;139811;-63
2022/10/25 10:43:44;;;;;;;3.80;2.10;;;;;;;17.48;64.93;99064.89;227408;1234;230771;-63
2022/10/25 10:48:53;;;;;;;6.10;2.10;;;;;;;17.47;65.19;99059.55;227412;1232;139139;-62
2022/10/25 10:53:57;;;;;;;4.00;1.90;;;;;;;17.49;65.28;99061.33;227320;1237;139488;-62
2022/10/25 10:59:00;;;;;;;5.90;2.10;;;;;;;17.52;65.30;99060.03;227467;1234;139790;-63
2022/10/25 11:04:03;;;;;;;5.20;2.20;;;;;;;17.61;65.57;99060.13;226731;1241;139858;-62
2022/10/25 11:09:11;;;;;;;9.40;2.30;;;;;;;17.67;65.48;99061.03;226299;1244;140323;-64
2022/10/25 11:14:16;;;;;;;6.90;2.10;;;;;;;17.70;65.66;99063.75;227349;1227;140309;-64
2022/10/25 11:19:19;;;;;;;5.80;2.40;;;;;;;17.70;65.46;99060.52;227572;1237;139147;-62
2022/10/25 11:24:59;;;;;;;7.10;2.20;;;;;;;17.70;65.41;99062.15;226683;1241;139714;-63
2022/10/25 11:30:14;;;;;;;9.30;2.30;;;;;;;17.80;65.48;99068.52;227390;1234;142622;-64
2022/10/25 11:35:36;;;;;;;7.00;3.00;;;;;;;17.93;65.64;99075.54;226301;1247;139669;-61
2022/10/25 11:40:45;;;;;;;5.20;2.60;;;;;;;18.00;65.47;99072.92;226375;1244;138795;-63
2022/10/25 11:45:57;;;;;;;5.60;2.60;;;;;;;18.10;65.59;99080.10;226568;1242;138745;-65
2022/10/25 11:51:40;;;;;;;7.30;3.80;;;;;;;18.20;65.57;99074.80;226276;1241;138799;-63
2022/10/25 11:57:13;;;;;;;5.90;3.00;;;;;;;18.34;65.24;99070.81;226427;1242;138981;-65
2022/10/25 12:02:44;;;;;;;12.90;3.80;;;;;;;18.44;64.88;99068.08;227504;1233;140230;-63
2022/10/25 12:07:53;;;;;;;6.70;3.10;;;;;;;18.57;64.96;99061.69;227510;1234;141902;-64
2022/10/25 12:13:15;;;;;;;6.70;2.70;;;;;;;18.63;64.47;99056.03;226420;1241;139107;-65
2022/10/25 12:18:23;;;;;;;7.90;3.30;;;;;;;18.71;64.31;99058.52;226430;1241;139078;-64
2022/10/25 12:23:35;;;;;;;9.00;3.20;;;;;;;18.73;63.86;99052.27;227498;1234;138758;-62
2022/10/25 12:28:48;;;;;;;7.20;3.30;;;;;;;18.75;63.73;99046.55;226730;1241;139749;-64
2022/10/25 12:34:01;;;;;;;5.30;2.80;;;;;;;18.82;63.64;99044.40;226721;1233;139198;-63
2022/10/25 12:39:17;;;;;;;6.00;3.10;;;;;;;18.95;63.48;99040.44;226719;1239;139224;-63
2022/10/25 12:44:57;;;;;;;9.80;3.60;;;;;;;19.07;63.34;99041.80;227431;1234;139821;-63
2022/10/25 12:50:28;;;;;;;7.80;3.10;;;;;;;19.17;63.04;99046.38;226586;1235;139278;-63
2022/10/25 12:56:05;;;;;;;6.70;2.90;;;;;;;19.24;62.76;99048.79;226433;1245;139440;-63
2022/10/25 13:01:36;;;;;;;4.20;2.60;;;;;;;19.24;62.44;99050.58;226648;1234;139285;-63
2022/10/25 13:06:45;;;;;;;11.90;3.00;;;;;;;19.17;62.21;99053.56;227603;1233;139561;-63
2022/10/25 13:11:56;;;;;;;8.20;2.70;;;;;;;19.05;61.97;99056.14;226311;1241;139296;-62
2022/10/25 13:17:17;;;;;;;6.80;2.80;;;;;;;18.96;61.93;99056.13;227233;1237;139404;-63
2022/10/25 13:22:33;;;;;;;4.60;2.50;;;;;;;18.96;61.82;99052.44;226513;1241;139273;-63
2022/10/25 13:28:09;;;;;;;7.90;2.80;;;;;;;18.92;61.68;99051.83;226408;1243;139054;-63
2022/10/25 13:33:21;;;;;;;6.80;2.50;;;;;;;18.93;61.70;99042.25;227342;1240;138884;-62
2022/10/25 13:38:29;;;;;;;5.00;2.50;;;;;;;19.01;61.82;99045.95;226140;1237;139790;-63
2022/10/25 13:43:55;;;;;;;6.90;3.30;;;;;;;19.11;61.72;99055.27;226566;1240;139017;-61
2022/10/25 13:49:00;;;;;;;10.60;5.20;;;;;;;19.12;61.52;99058.76;226335;1244;138779;-62
2022/10/25 13:54:04;;;;;;;7.80;3.50;;;;;;;19.06;61.35;99054.81;226376;1240;139660;-63
2022/10/25 13:59:57;;;;;;;12.90;7.40;;;;;;;19.00;61.44;99053.64;227280;1241;139507;-62
2022/10/25 14:05:00;;;;;;;8.00;3.00;;;;;;;18.98;61.48;99056.84;227441;1234;139337;-62
2022/10/25 14:10:12;;;;;;;4.90;2.60;;;;;;;18.91;61.38;99065.29;227348;1234;139181;-62
2022/10/25 14:15:38;;;;;;;6.90;3.10;;;;;;;18.90;61.51;99074.55;226248;1244;139407;-62
2022/10/25 14:20:45;;;;;;;9.00;3.10;;;;;;;18.94;61.62;99083.19;226316;1240;139195;-63
2022/10/25 14:26:00;;;;;;;9.20;3.10;;;;;;;18.99;61.60;99082.36;226606;1240;139392;-62
2022/10/25 14:31:10;;;;;;;9.40;2.80;;;;;;;19.03;61.59;99082.61;226539;1248;139790;-62
2022/10/25 14:36:28;;;;;;;6.50;3.10;;;;;;;19.06;61.58;99085.62;226331;1243;139543;-63
2022/10/25 14:41:34;;;;;;;9.60;3.50;;;;;;;19.06;61.50;99082.87;226351;1241;139200;-62
2022/10/25 14:46:43;;;;;;;20.50;14.20;;;;;;;19.06;61.80;99078.37;226341;1241;140048;-62
2022/10/25 14:51:49;;;;;;;6.70;4.00;;;;;;;19.12;62.08;99079.00;227447;1236;140400;-62
2022/10/25 14:57:01;;;;;;;6.20;3.50;;;;;;;19.04;61.73;99081.27;226058;1234;140364;-63
2022/10/25 15:02:27;;;;;;;7.90;3.90;;;;;;;18.95;61.59;99083.21;226381;1242;138770;-63
2022/10/25 15:07:30;;;;;;;;;;;;;;;18.82;61.69;99086.29;226665;1240;139013;-63
2022/10/25 15:12:33;;;;;;;7.20;3.20;;;;;;;18.73;61.89;99095.73;226512;1242;126316;-62
2022/10/25 15:17:37;;;;;;;8.00;3.90;;;;;;;18.70;62.27;99108.23;226246;1241;139902;-63
2022/10/25 15:22:42;;;;;;;5.70;4.10;;;;;;;18.70;62.35;99110.21;227345;1234;139432;-63
2022/10/25 15:27:46;;;;;;;17.80;11.40;;;;;;;18.67;62.37;99113.70;226644;1230;139145;-62
2022/10/25 15:32:49;;;;;;;10.90;5.60;;;;;;;18.62;62.59;99126.40;226386;1238;140346;-63
2022/10/25 15:37:54;;;;;;;13.60;4.10;;;;;;;18.58;62.57;99129.11;226141;1243;139242;-63
2022/10/25 15:42:57;;;;;;;102.60;78.20;;;;;;;18.49;62.54;99134.51;226367;1242;139000;-63
2022/10/25 15:48:13;;;;;;;16.90;9.90;;;;;;;18.41;62.65;99134.12;227415;1234;139945;-62
2022/10/25 15:53:16;;;;;;;7.00;4.00;;;;;;;18.37;62.75;99133.60;226298;1244;139379;-64
2022/10/25 15:58:19;;;;;;;9.10;3.90;;;;;;;18.38;62.68;99138.20;227119;1233;139619;-65
2022/10/25 16:03:23;;;;;;;7.30;3.90;;;;;;;18.32;62.76;99135.00;226244;1247;139933;-64
2022/10/25 16:08:26;;;;;;;8.30;4.00;;;;;;;18.32;62.91;99135.65;226257;1241;139563;-65
2022/10/25 16:13:36;;;;;;;10.10;4.10;;;;;;;18.33;62.69;99136.64;226361;1241;139926;-63
2022/10/25 16:18:39;;;;;;;7.90;3.60;;;;;;;18.31;62.59;99141.29;226083;1241;139521;-64
2022/10/25 16:23:42;;;;;;;6.70;3.10;;;;;;;18.28;62.21;99139.15;227227;1235;139183;-66
2022/10/25 16:28:45;;;;;;;13.70;3.70;;;;;;;18.21;61.94;99143.33;227440;1234;139369;-63
2022/10/25 16:33:48;;;;;;;130.90;87.30;;;;;;;18.12;61.65;99150.77;227275;1232;139969;-63
2022/10/25 16:38:51;;;;;;;10.70;4.80;;;;;;;18.07;61.93;99154.30;226136;1240;140584;-62
2022/10/25 16:43:56;;;;;;;8.70;3.00;;;;;;;18.03;61.61;99157.75;227301;1234;139152;-63
2022/10/25 16:48:59;;;;;;;10.90;3.40;;;;;;;18.03;61.52;99166.39;227508;1240;139465;-64
2022/10/25 16:54:05;;;;;;;8.70;3.10;;;;;;;18.03;61.58;99168.17;226330;1242;139875;-63
2022/10/25 16:59:08;;;;;;;109.10;82.60;;;;;;;18.04;61.70;99165.94;227325;1234;139320;-64
2022/10/25 17:04:13;;;;;;;8.70;4.20;;;;;;;18.05;61.67;99173.16;226316;1242;139689;-64
2022/10/25 17:09:17;;;;;;;6.40;3.30;;;;;;;18.02;61.60;99174.88;227311;1234;140194;-64
2022/10/25 17:14:20;;;;;;;5.30;3.20;;;;;;;17.95;61.40;99171.97;227262;1231;140300;-64
2022/10/25 17:19:24;;;;;;;8.60;4.00;;;;;;;17.86;61.46;99179.05;227514;1234;139371;-64
2022/10/25 17:24:31;;;;;;;9.00;3.80;;;;;;;17.80;61.65;99179.07;226355;1238;139022;-63
2022/10/25 17:29:34;;;;;;;6.90;3.70;;;;;;;17.71;61.71;99179.63;226140;1244;139369;-63
2022/10/25 17:34:37;;;;;;;8.70;3.60;;;;;;;17.67;61.61;99185.15;226277;1241;140066;-63
2022/10/25 17:39:43;;;;;;;9.10;5.30;;;;;;;17.68;61.98;99190.27;226372;1243;139416;-61
2022/10/25 17:44:46;;;;;;;9.70;4.20;;;;;;;17.67;62.06;99194.11;226194;1240;138862;-64
2022/10/25 17:49:49;;;;;;;8.30;4.20;;;;;;;17.65;62.08;99192.52;226599;1239;140129;-63
2022/10/25 17:54:52;;;;;;;12.30;4.90;;;;;;;17.63;61.93;99197.18;226653;1242;139134;-66
2022/10/25 17:59:56;;;;;;;10.60;5.30;;;;;;;17.59;61.80;99203.52;226276;1241;139352;-61
2022/10/25 18:04:59;;;;;;;9.90;5.80;;;;;;;17.50;61.69;99216.30;226530;1241;139746;-62
2022/10/25 18:10:24;;;;;;;13.00;5.90;;;;;;;17.40;61.57;99217.70;226640;1236;140083;-63
2022/10/25 18:15:28;;;;;;;12.30;6.20;;;;;;;17.33;61.68;99219.58;226401;1241;139155;-64
2022/10/25 18:20:31;;;;;;;70.20;48.20;;;;;;;17.25;61.57;99225.84;226297;1241;230389;-60
2022/10/25 18:25:35;;;;;;;12.20;7.50;;;;;;;17.22;61.72;99227.32;226593;1240;139410;-63
2022/10/25 18:30:37;;;;;;;38.30;30.70;;;;;;;17.20;61.53;99227.30;226464;1241;139862;-64
2022/10/25 18:35:41;;;;;;;14.30;6.60;;;;;;;17.25;61.70;99225.27;226491;1242;139995;-65
2022/10/25 18:40:44;;;;;;;15.20;7.10;;;;;;;17.25;61.79;99227.92;226104;1240;140165;-64
2022/10/25 18:45:47;;;;;;;16.90;6.60;;;;;;;17.22;61.50;99230.56;226399;1241;139402;-62
2022/10/25 18:50:50;;;;;;;10.40;6.40;;;;;;;17.17;61.37;99229.70;226537;1241;140316;-62
2022/10/25 18:55:53;;;;;;;12.70;7.20;;;;;;;17.13;61.35;99230.63;227246;1226;140685;-65
2022/10/25 19:00:57;;;;;;;15.50;7.10;;;;;;;17.08;61.11;99236.23;226509;1241;139648;-65
2022/10/25 19:06:00;;;;;;;14.60;6.80;;;;;;;17.01;61.27;99237.75;227314;1233;139585;-63
2022/10/25 19:11:06;;;;;;;12.30;7.30;;;;;;;16.92;61.27;99243.76;226623;1241;139245;-62
2022/10/25 19:16:09;;;;;;;15.20;7.30;;;;;;;16.85;61.38;99251.48;226557;1238;139798;-64
2022/10/25 19:21:15;;;;;;;15.70;7.50;;;;;;;16.76;61.25;99258.30;226438;1241;139421;-64
2022/10/25 19:26:19;;;;;;;11.50;7.10;;;;;;;16.70;61.22;99261.83;227388;1246;139356;-61
2022/10/25 19:31:23;;;;;;;12.00;6.80;;;;;;;16.68;61.12;99265.95;226631;1240;140869;-64
2022/10/25 19:36:26;;;;;;;11.60;7.10;;;;;;;16.67;61.41;99270.52;227302;1244;140154;-62
2022/10/25 19:41:29;;;;;;;14.90;7.60;;;;;;;16.66;61.45;99274.95;226377;1241;140280;-64
2022/10/25 19:46:32;;;;;;;15.70;8.50;;;;;;;16.61;61.35;99273.16;227199;1237;139123;-65
2022/10/25 19:51:35;;;;;;;16.80;8.60;;;;;;;16.60;61.79;99273.46;226446;1241;139529;-64
2022/10/25 19:56:38;;;;;;;18.80;7.80;;;;;;;16.63;61.85;99271.92;226338;1233;139392;-65
2022/10/25 20:01:44;;;;;;;13.80;7.90;;;;;;;16.59;61.50;99275.16;226498;1247;139760;-64
2022/10/25 20:06:48;;;;;;;13.10;8.00;;;;;;;16.49;61.50;99276.52;227487;1234;140542;-63
2022/10/25 20:11:51;;;;;;;14.70;7.90;;;;;;;16.42;61.39;99278.89;227413;1234;139539;-64
2022/10/25 20:16:54;;;;;;;19.50;9.00;;;;;;;16.37;61.45;99277.54;226521;1238;138848;-63
2022/10/25 20:21:57;;;;;;;20.20;9.90;;;;;;;16.34;61.52;99276.48;226295;1241;140402;-65
2022/10/25 20:27:00;;;;;;;13.90;7.80;;;;;;;16.37;61.70;99275.50;226419;1237;139945;-63
2022/10/25 20:32:04;;;;;;;16.70;8.50;;;;;;;16.42;61.53;99277.83;226311;1235;139967;-63
2022/10/25 20:37:09;;;;;;;16.20;8.00;;;;;;;16.43;61.75;99280.73;227471;1231;139146;-63
2022/10/25 20:42:11;;;;;;;14.40;8.60;;;;;;;16.46;61.49;99286.73;226546;1241;139361;-64
2022/10/25 20:47:15;;;;;;;16.70;8.60;;;;;;;16.42;61.48;99286.77;226443;1234;139532;-64
2022/10/25 20:52:18;;;;;;;12.70;7.70;;;;;;;16.36;61.40;99288.34;227377;1234;139224;-63
2022/10/25 20:57:21;;;;;;;14.50;7.60;;;;;;;16.28;61.48;99288.39;226400;1240;139582;-65
2022/10/25 21:02:24;;;;;;;17.60;10.20;;;;;;;16.23;61.32;99284.89;227430;1234;139770;-63
2022/10/25 21:07:30;;;;;;;16.20;8.40;;;;;;;16.19;61.53;99287.36;226701;1241;139394;-63
2022/10/25 21:12:34;;;;;;;15.00;8.30;;;;;;;16.16;61.65;99291.55;226389;1247;139407;-63
2022/10/25 21:17:37;;;;;;;17.40;7.70;;;;;;;16.15;61.59;99293.08;226506;1244;140110;-63
2022/10/25 21:22:41;;;;;;;14.70;8.40;;;;;;;16.14;61.54;99293.86;227408;1235;140252;-65
2022/10/25 21:27:44;;;;;;;16.50;9.40;;;;;;;16.15;61.55;99295.59;226615;1234;140653;-66
2022/10/25 21:32:48;;;;;;;15.40;8.50;;;;;;;16.16;61.83;99292.66;227335;1234;138773;-66
2022/10/25 21:37:51;;;;;;;18.70;9.10;;;;;;;16.18;61.59;99291.41;226614;1241;139253;-63
2022/10/25 21:42:56;;;;;;;16.00;9.30;;;;;;;16.12;61.54;99294.71;226354;1244;139297;-63
2022/10/25 21:47:59;;;;;;;18.10;9.70;;;;;;;16.09;61.68;99291.71;226102;1241;139189;-65
2022/10/25 21:53:02;;;;;;;20.00;9.90;;;;;;;16.07;61.39;99291.36;226670;1241;139308;-62
2022/10/25 21:58:05;;;;;;;21.00;10.70;;;;;;;16.02;61.45;99293.61;226534;1241;139296;-64
2022/10/25 22:03:08;;;;;;;15.40;9.80;;;;;;;15.94;61.47;99297.13;226347;1244;140161;-61
2022/10/25 22:08:11;;;;;;;21.50;10.80;;;;;;;15.86;61.46;99301.86;227372;1234;139225;-64
2022/10/25 22:13:14;;;;;;;19.10;10.10;;;;;;;15.78;61.57;99297.65;226493;1238;139537;-65
2022/10/25 22:18:17;;;;;;;22.90;10.00;;;;;;;15.74;61.49;99296.69;226606;1241;140520;-62
2022/10/25 22:23:21;;;;;;;18.30;10.60;;;;;;;15.71;61.74;99295.66;227294;1234;140083;-64
2022/10/25 22:28:24;;;;;;;22.10;11.20;;;;;;;15.67;61.60;99295.14;226158;1241;139772;-63
2022/10/25 22:33:28;;;;;;;17.70;11.00;;;;;;;15.66;61.89;99296.29;226590;1241;139551;-63
2022/10/25 22:38:32;;;;;;;22.50;10.70;;;;;;;15.65;61.87;99306.55;227436;1233;140324;-64
2022/10/25 22:43:35;;;;;;;20.80;11.30;;;;;;;15.56;61.66;99306.55;226704;1241;139363;-62
2022/10/25 22:48:40;;;;;;;21.00;11.50;;;;;;;15.38;61.70;99309.91;227410;1227;139498;-63
2022/10/25 22:53:43;;;;;;;18.90;10.80;;;;;;;15.30;61.92;99309.25;226250;1244;139562;-64
2022/10/25 22:58:49;;;;;;;15.90;10.60;;;;;;;15.25;62.08;99310.70;226475;1238;139222;-64
2022/10/25 23:03:54;;;;;;;19.60;10.50;;;;;;;15.27;62.34;99308.55;226598;1238;140222;-63
2022/10/25 23:08:58;;;;;;;;;;;;;;;15.29;62.29;99308.61;226092;1250;140169;-64
2022/10/25 23:14:03;;;;;;;20.10;13.40;;;;;;;15.28;62.51;99310.32;227482;1234;125940;-65
2022/10/25 23:19:07;;;;;;;22.40;11.90;;;;;;;15.25;62.43;99314.99;226724;1241;139951;-63